首页
METAR-TAF:

METAR-TAF

机场 :

Santa Maria di Leuca

Castrignano del Capo, 意大利

纬度: 39-49N, 经度: 018-21E, 海拔: 104米

当前天气观测

该预报发布于1小时和15分钟前的00:55 UTC
风速5节,风向北转东北
温度 17°C
湿度 82%
气压 1015 hPa
能见度10公里或以上
少量云层高于1500英尺
多云层高于2000英尺

METAR: LIBY 260055Z 02005KT 9999 FEW015 BKN020 17/14 Q1015 RMK OVC BKN080 QUK / QUL / VIS MAR 10 KM VIS MIN 9999

时间: 04:10 (02:10 UTC)


TAF: 丢失

超过4000个机场的气象观测和天气预报(METAR&TAF报告)。

可查询的气象台以黄色和红色小点在地图上表示。

将鼠标移到小点上方,可查看气象台名称。

然后点击查看天气观测和预报。

如需切换地图:点击带黑十字的绿色按钮放大地图;点击带横线的绿色按钮缩小地图;或者点击绿色箭头查看邻近地区的地图。


METAR-TAF: